Terminal Aerodrome Forecast
Issued by NWS Louisville, KY

Home | Current Version | Previous Version | Text Only | Print | Product List | Glossary On
Versions: 1 2 3 4 5 6 7 8 9 10 11 12 13 14 15 16 17 18 19
000
FTUS43 KLMK 170500
TAFBWG
TAF
KBWG 170520Z 1706/1806 02004KT P6SM SKC
     FM170900 00000KT 4SM BR SCT005
      TEMPO 1709/1713 1SM BR
     FM171400 VRB04KT P6SM SKC=

USA.gov is the U.S. government's official web portal to all federal, state and local government web resources and services.